createdAt,value
2022-11-24T00:01:21.236Z,100349.31
2022-11-24T00:04:04.899Z,100355.78
2022-11-24T00:06:34.797Z,100334.06
2022-11-24T00:09:03.630Z,100353.16
2022-11-24T00:11:33.893Z,100339.66
2022-11-24T00:14:01.593Z,100345.97
2022-11-24T00:16:31.229Z,100337.22
2022-11-24T00:19:00.230Z,100334.16
2022-11-24T00:21:30.738Z,100345.66
2022-11-24T00:23:58.045Z,100348.13
2022-11-24T00:26:33.729Z,100329.31
2022-11-24T00:29:04.551Z,100362.53
2022-11-24T00:31:33.933Z,100363.56
2022-11-24T00:34:04.688Z,100367.13
2022-11-24T00:36:34.748Z,100368.81
2022-11-24T00:39:12.372Z,100362.13
2022-11-24T00:41:39.602Z,100353.56
2022-11-24T00:44:06.751Z,100363.22
2022-11-24T00:46:34.783Z,100368.53
2022-11-24T00:49:01.890Z,100363.28
2022-11-24T00:51:30.246Z,100376.75
2022-11-24T00:53:58.583Z,100384.47
2022-11-24T00:56:26.970Z,100378.00
2022-11-24T00:58:53.830Z,100386.81
2022-11-24T01:01:26.859Z,100387.25
2022-11-24T01:03:55.358Z,100372.38
2022-11-24T01:06:25.822Z,100368.09
2022-11-24T01:08:53.262Z,100386.94
2022-11-24T01:11:26.728Z,100372.81
2022-11-24T01:13:58.567Z,100379.47
2022-11-24T01:16:33.531Z,100378.72
2022-11-24T01:19:01.336Z,100374.75
2022-11-24T01:21:28.089Z,100377.75
2022-11-24T01:23:54.966Z,100380.81
2022-11-24T01:26:22.599Z,100387.09
2022-11-24T01:28:55.308Z,100388.97
2022-11-24T01:31:23.068Z,100379.59
2022-11-24T01:33:50.325Z,100389.19
2022-11-24T01:36:17.543Z,100384.91
2022-11-24T01:38:44.320Z,100397.63
2022-11-24T01:41:11.986Z,100392.91
2022-11-24T01:43:40.011Z,100391.53
2022-11-24T01:46:30.238Z,100377.97
2022-11-24T01:49:18.192Z,100372.09
2022-11-24T01:52:10.108Z,100392.13
2022-11-24T01:54:52.684Z,100385.06
2022-11-24T01:57:44.820Z,100400.00
2022-11-24T02:00:14.635Z,100400.72
2022-11-24T02:02:44.516Z,100399.69
2022-11-24T02:05:23.330Z,100398.81
2022-11-24T02:07:52.256Z,100426.91
2022-11-24T02:10:18.991Z,100422.69
2022-11-24T02:12:50.812Z,100427.19
2022-11-24T02:15:18.839Z,100425.31
2022-11-24T02:17:45.661Z,100422.50
2022-11-24T02:20:14.601Z,100425.31
2022-11-24T02:23:08.963Z,100433.53
2022-11-24T02:26:07.880Z,100432.78
2022-11-24T02:28:34.710Z,100429.19
2022-11-24T02:31:03.163Z,100435.41
2022-11-24T02:33:30.557Z,100425.34
2022-11-24T02:35:57.458Z,100433.88
2022-11-24T02:38:35.711Z,100438.81
2022-11-24T02:41:11.712Z,100444.22
2022-11-24T02:43:48.783Z,100435.28
2022-11-24T02:46:15.575Z,100444.66
2022-11-24T02:48:42.323Z,100447.91
2022-11-24T02:51:09.416Z,100440.66
2022-11-24T02:53:36.170Z,100447.16
2022-11-24T02:56:03.468Z,100437.50
2022-11-24T02:58:30.200Z,100447.47
2022-11-24T03:00:58.034Z,100454.91
2022-11-24T03:03:25.144Z,100450.75
2022-11-24T03:05:52.091Z,100437.44
2022-11-24T03:08:18.988Z,100438.19
2022-11-24T03:10:45.782Z,100414.47
2022-11-24T03:13:12.530Z,100424.78
2022-11-24T03:15:39.363Z,100439.25
2022-11-24T03:18:06.360Z,100428.78
2022-11-24T03:20:33.309Z,100438.50
2022-11-24T03:23:00.051Z,100444.88
2022-11-24T03:25:26.816Z,100452.38
2022-11-24T03:27:55.578Z,100431.78
2022-11-24T03:30:22.306Z,100452.53
2022-11-24T03:32:53.506Z,100463.78
2022-11-24T03:35:21.925Z,100457.47
2022-11-24T03:37:48.705Z,100462.94
2022-11-24T03:40:17.894Z,100461.44
2022-11-24T03:42:44.811Z,100459.34
2022-11-24T03:45:37.915Z,100452.16
2022-11-24T03:47:58.435Z,100457.88
2022-11-24T03:50:25.245Z,100458.00
2022-11-24T03:52:52.032Z,100477.09
2022-11-24T03:55:18.867Z,100476.75
2022-11-24T03:57:45.624Z,100477.50
2022-11-24T04:00:12.720Z,100445.66
2022-11-24T04:02:39.561Z,100452.53
2022-11-24T04:05:07.443Z,100478.44
2022-11-24T04:07:34.212Z,100466.88
2022-11-24T04:10:01.015Z,100481.91
2022-11-24T04:12:45.896Z,100471.84
2022-11-24T04:15:18.868Z,100451.16
2022-11-24T04:17:48.341Z,100482.28
2022-11-24T04:20:16.510Z,100491.97
2022-11-24T04:22:43.624Z,100494.28
2022-11-24T04:25:11.253Z,100500.16
2022-11-24T04:27:38.621Z,100499.13
2022-11-24T04:30:07.199Z,100498.91
2022-11-24T04:32:33.918Z,100501.38
2022-11-24T04:35:00.685Z,100503.91
2022-11-24T04:37:27.443Z,100504.84
2022-11-24T04:39:55.151Z,100510.72
2022-11-24T04:42:22.000Z,100511.06
2022-11-24T04:44:48.744Z,100514.59
2022-11-24T04:47:22.311Z,100515.19
2022-11-24T04:49:50.005Z,100515.63
2022-11-24T04:52:19.519Z,100517.41
2022-11-24T04:54:47.586Z,100525.09
2022-11-24T04:57:21.015Z,100527.84
2022-11-24T04:59:48.595Z,100528.75
2022-11-24T05:02:15.296Z,100541.44
2022-11-24T05:04:42.288Z,100536.78
2022-11-24T05:07:18.791Z,100542.81
2022-11-24T05:10:05.711Z,100539.88
2022-11-24T05:12:32.559Z,100523.06
2022-11-24T05:15:01.209Z,100537.66
2022-11-24T05:17:37.454Z,100553.59
2022-11-24T05:20:06.807Z,100547.53
2022-11-24T05:22:33.641Z,100540.59
2022-11-24T05:25:00.339Z,100568.00
2022-11-24T05:27:27.421Z,100558.72
2022-11-24T05:29:54.114Z,100576.16
2022-11-24T05:32:20.900Z,100575.09
2022-11-24T05:34:47.924Z,100572.59
2022-11-24T05:37:14.651Z,100563.13
2022-11-24T05:39:41.323Z,100569.00
2022-11-24T05:42:27.399Z,100571.25
2022-11-24T05:44:54.342Z,100584.47
2022-11-24T05:47:21.926Z,100588.72
2022-11-24T05:49:48.708Z,100580.44
2022-11-24T05:52:16.761Z,100566.75
2022-11-24T05:54:43.642Z,100586.22
2022-11-24T05:57:10.337Z,100576.09
2022-11-24T05:59:37.226Z,100569.41
2022-11-24T06:02:04.049Z,100534.72
2022-11-24T06:04:31.931Z,100558.25
2022-11-24T06:06:58.954Z,100572.81
2022-11-24T06:09:25.609Z,100579.28
2022-11-24T06:11:52.262Z,100578.72
2022-11-24T06:14:18.936Z,100588.91
2022-11-24T06:16:45.696Z,100574.91
2022-11-24T06:19:12.518Z,100596.28
2022-11-24T06:21:39.278Z,100607.22
2022-11-24T06:24:06.681Z,100613.34
2022-11-24T06:26:33.599Z,100585.59
2022-11-24T06:29:00.377Z,100604.09
2022-11-24T06:31:27.374Z,100609.59
2022-11-24T06:33:54.218Z,100605.00
2022-11-24T06:36:20.909Z,100620.31
2022-11-24T06:38:47.620Z,100629.53
2022-11-24T06:41:16.002Z,100629.78
2022-11-24T06:43:43.203Z,100629.09
2022-11-24T06:46:10.382Z,100637.84
2022-11-24T06:48:37.786Z,100643.34
2022-11-24T06:51:08.028Z,100650.38
2022-11-24T06:53:38.128Z,100637.16
2022-11-24T06:56:16.407Z,100633.44
2022-11-24T06:58:47.231Z,100617.44
2022-11-24T07:01:23.189Z,100623.28
2022-11-24T07:03:51.244Z,100616.63
2022-11-24T07:06:19.288Z,100608.53
2022-11-24T07:08:46.688Z,100636.56
2022-11-24T07:11:21.292Z,100633.63
2022-11-24T07:13:48.544Z,100640.69
2022-11-24T07:16:21.739Z,100656.50
2022-11-24T07:18:51.267Z,100650.50
2022-11-24T07:21:20.300Z,100650.81
2022-11-24T07:23:51.612Z,100635.47
2022-11-24T07:26:19.083Z,100660.31
2022-11-24T07:28:46.442Z,100657.81
2022-11-24T07:31:16.267Z,100664.22
2022-11-24T07:33:42.944Z,100658.63
2022-11-24T07:36:09.929Z,100650.81
2022-11-24T07:38:36.824Z,100667.97
2022-11-24T07:41:09.659Z,100675.25
2022-11-24T07:43:37.906Z,100681.72
2022-11-24T07:46:06.441Z,100657.00
2022-11-24T07:48:34.383Z,100680.16
2022-11-24T07:51:03.138Z,100690.69
2022-11-24T07:53:31.032Z,100678.59
2022-11-24T07:56:02.394Z,100684.03
2022-11-24T07:58:32.823Z,100692.41
2022-11-24T08:01:00.473Z,100691.97
2022-11-24T08:03:27.547Z,100693.69
2022-11-24T08:06:23.189Z,100686.03
2022-11-24T08:08:47.231Z,100688.34
2022-11-24T08:11:17.351Z,100691.16
2022-11-24T08:13:44.353Z,100692.38
2022-11-24T08:16:14.851Z,100689.69
2022-11-24T08:18:42.775Z,100717.56
2022-11-24T08:21:13.886Z,100709.13
2022-11-24T08:23:41.325Z,100707.47
2022-11-24T08:26:16.644Z,100697.00
2022-11-24T08:28:45.594Z,100715.44
2022-11-24T08:31:16.724Z,100720.69
2022-11-24T08:33:43.418Z,100727.03
2022-11-24T08:36:13.534Z,100719.31
2022-11-24T08:38:41.104Z,100718.50
2022-11-24T08:41:11.583Z,100719.78
2022-11-24T08:43:39.606Z,100723.81
2022-11-24T08:46:12.384Z,100713.03
2022-11-24T08:48:39.942Z,100722.50
2022-11-24T08:51:13.682Z,100725.97
2022-11-24T08:53:41.632Z,100724.81
2022-11-24T08:56:10.561Z,100721.25
2022-11-24T08:58:38.470Z,100722.50
2022-11-24T09:01:13.453Z,100734.72
2022-11-24T09:03:48.235Z,100724.47
2022-11-24T09:06:25.407Z,100725.13
2022-11-24T09:08:54.533Z,100720.66
2022-11-24T09:11:22.223Z,100728.38
2022-11-24T09:13:49.369Z,100734.97
2022-11-24T09:16:25.772Z,100731.78
2022-11-24T09:19:10.774Z,100738.91
2022-11-24T09:21:38.845Z,100744.22
2022-11-24T09:24:10.301Z,100745.44
2022-11-24T09:26:41.889Z,100752.72
2022-11-24T09:29:13.613Z,100736.91
2022-11-24T09:31:41.019Z,100742.28
2022-11-24T09:34:13.075Z,100730.53
2022-11-24T09:36:40.011Z,100729.50
2022-11-24T09:39:07.015Z,100741.97
2022-11-24T09:42:14.229Z,100742.69
2022-11-24T09:45:08.334Z,100741.06
2022-11-24T09:48:01.478Z,100750.69
2022-11-24T09:50:37.578Z,100759.38
2022-11-24T09:53:22.923Z,100759.19
2022-11-24T09:55:58.422Z,100758.97
2022-11-24T09:58:40.958Z,100747.66
2022-11-24T10:01:30.773Z,100766.19
2022-11-24T10:04:04.254Z,100766.78
2022-11-24T10:06:48.018Z,100776.16
2022-11-24T10:09:40.093Z,100764.41
2022-11-24T10:12:47.599Z,100764.59
2022-11-24T10:15:34.173Z,100768.50
2022-11-24T10:18:50.400Z,100768.91
2022-11-24T10:21:41.581Z,100774.28
2022-11-24T10:24:59.551Z,100772.63
2022-11-24T10:27:38.667Z,100779.34
2022-11-24T10:30:21.774Z,100788.47
2022-11-24T10:33:06.147Z,100758.94
2022-11-24T10:36:02.794Z,100748.97
2022-11-24T10:38:37.900Z,100777.78
2022-11-24T10:41:10.944Z,100789.44
2022-11-24T10:43:40.321Z,100776.66
2022-11-24T10:46:39.516Z,100771.19
2022-11-24T10:49:06.489Z,100782.00
2022-11-24T10:51:41.675Z,100778.19
2022-11-24T10:54:22.289Z,100784.72
2022-11-24T10:56:52.931Z,100770.34
2022-11-24T10:59:25.346Z,100779.72
2022-11-24T11:01:53.091Z,100777.47
2022-11-24T11:04:34.820Z,100777.63
2022-11-24T11:07:21.217Z,100772.84
2022-11-24T11:09:48.621Z,100784.97
2022-11-24T11:15:29.768Z,100772.91
2022-11-24T11:18:01.762Z,100767.00
2022-11-24T11:20:32.976Z,100773.75
2022-11-24T11:23:16.764Z,100777.38
2022-11-24T11:25:43.914Z,100781.69
2022-11-24T11:28:30.895Z,100780.97
2022-11-24T11:31:17.229Z,100775.03
2022-11-24T11:34:06.296Z,100759.06
2022-11-24T11:36:46.346Z,100781.28
2022-11-24T11:39:32.757Z,100776.31
2022-11-24T11:43:03.652Z,100791.69
2022-11-24T11:45:31.852Z,100802.25
2022-11-24T11:48:01.387Z,100767.44
2022-11-24T11:51:21.843Z,100794.81
2022-11-24T11:54:08.086Z,100804.22
2022-11-24T11:56:45.007Z,100795.66
2022-11-24T11:59:33.347Z,100793.97
2022-11-24T12:02:32.333Z,100794.66
2022-11-24T12:05:10.831Z,100800.38
2022-11-24T12:07:56.633Z,100804.97
2022-11-24T12:10:48.130Z,100803.28
2022-11-24T12:13:36.083Z,100809.94
2022-11-24T12:16:35.770Z,100816.97
2022-11-24T12:19:39.803Z,100812.13
2022-11-24T12:22:16.991Z,100817.91
2022-11-24T12:25:09.778Z,100821.91
2022-11-24T12:28:18.587Z,100814.72
2022-11-24T12:31:06.493Z,100810.78
2022-11-24T12:34:15.089Z,100815.72
2022-11-24T12:37:19.789Z,100810.69
2022-11-24T12:40:16.253Z,100814.69
2022-11-24T12:43:02.353Z,100816.03
2022-11-24T12:46:11.186Z,100826.53
2022-11-24T12:49:02.693Z,100829.91
2022-11-24T12:51:39.720Z,100826.53
2022-11-24T12:54:14.365Z,100824.44
2022-11-24T12:57:02.296Z,100804.03
2022-11-24T12:59:35.122Z,100825.53
2022-11-24T13:02:37.288Z,100816.66
2022-11-24T13:05:33.099Z,100833.03
2022-11-24T13:08:03.288Z,100833.44
2022-11-24T13:10:57.877Z,100830.59
2022-11-24T13:13:48.188Z,100836.19
2022-11-24T13:19:13.650Z,100837.84
2022-11-24T13:21:40.327Z,100843.69
2022-11-24T13:24:25.401Z,100833.78
2022-11-24T13:27:14.084Z,100830.66
2022-11-24T13:29:51.660Z,100834.16
2022-11-24T13:32:18.481Z,100843.31
2022-11-24T13:34:54.911Z,100848.28
2022-11-24T13:37:33.974Z,100853.69
2022-11-24T13:40:31.701Z,100863.47
2022-11-24T13:43:00.349Z,100869.03
2022-11-24T13:45:39.680Z,100866.97
2022-11-24T13:48:22.487Z,100872.16
2022-11-24T13:50:49.509Z,100869.34
2022-11-24T13:53:22.287Z,100865.53
2022-11-24T13:56:25.015Z,100873.69
2022-11-24T13:59:17.137Z,100876.84
2022-11-24T14:01:46.712Z,100874.19
2022-11-24T14:04:33.844Z,100872.75
2022-11-24T14:07:11.891Z,100874.47
2022-11-24T14:09:51.912Z,100879.78
2022-11-24T14:12:26.587Z,100883.06
2022-11-24T14:14:57.475Z,100900.72
2022-11-24T14:17:28.374Z,100886.91
2022-11-24T14:19:57.758Z,100882.38
2022-11-24T14:22:40.289Z,100892.16
2022-11-24T14:25:29.855Z,100906.47
2022-11-24T14:27:57.384Z,100910.22
2022-11-24T14:30:26.242Z,100913.19
2022-11-24T14:32:58.089Z,100906.97
2022-11-24T14:35:34.616Z,100918.56
2022-11-24T14:38:03.731Z,100920.50
2022-11-24T14:40:46.600Z,100903.94
2022-11-24T14:43:29.257Z,100895.28
2022-11-24T14:46:18.365Z,100916.31
2022-11-24T14:48:51.471Z,100916.56
2022-11-24T14:51:23.920Z,100918.69
2022-11-24T14:53:55.171Z,100927.84
2022-11-24T14:56:25.973Z,100936.56
2022-11-24T14:58:54.486Z,100936.13
2022-11-24T15:01:27.534Z,100939.31
2022-11-24T15:04:39.361Z,100941.44
2022-11-24T15:07:21.751Z,100950.22
2022-11-24T15:09:53.903Z,100952.78
2022-11-24T15:12:41.334Z,100950.13
2022-11-24T15:15:14.004Z,100955.34
2022-11-24T15:17:53.213Z,100957.56
2022-11-24T15:20:37.444Z,100952.69
2022-11-24T15:23:28.040Z,100955.75
2022-11-24T15:25:57.314Z,100954.25
2022-11-24T15:28:27.765Z,100962.53
2022-11-24T15:30:59.247Z,100967.19
2022-11-24T15:33:26.476Z,100963.06
2022-11-24T15:35:53.125Z,100965.72
2022-11-24T15:38:20.011Z,100963.91
2022-11-24T15:40:50.592Z,100974.94
2022-11-24T15:43:43.539Z,100973.44
2022-11-24T15:46:10.503Z,100976.00
2022-11-24T15:48:37.640Z,100981.00
2022-11-24T15:51:14.939Z,100973.38
2022-11-24T15:53:49.937Z,100990.81
2022-11-24T15:56:33.835Z,100984.94
2022-11-24T15:59:01.799Z,100969.78
2022-11-24T16:01:34.259Z,100983.03
2022-11-24T16:04:01.826Z,100974.72
2022-11-24T16:06:28.603Z,100977.47
2022-11-24T16:08:55.421Z,100975.41
2022-11-24T16:11:23.159Z,100985.31
2022-11-24T16:13:53.228Z,100978.94
2022-11-24T16:16:23.581Z,100989.50
2022-11-24T16:18:50.753Z,100966.19
2022-11-24T16:21:17.773Z,100994.44
2022-11-24T16:23:45.518Z,100992.19
2022-11-24T16:26:12.285Z,100991.16
2022-11-24T16:28:39.151Z,101008.34
2022-11-24T16:31:06.046Z,101006.06
2022-11-24T16:33:32.710Z,101012.13
2022-11-24T16:35:59.450Z,101017.84
2022-11-24T16:38:26.189Z,101010.09
2022-11-24T16:40:56.241Z,101016.63
2022-11-24T16:43:24.299Z,101015.22
2022-11-24T16:46:15.969Z,101008.78
2022-11-24T16:48:44.453Z,101019.88
2022-11-24T16:51:12.356Z,101011.50
2022-11-24T16:53:39.791Z,100996.94
2022-11-24T16:56:07.305Z,101005.22
2022-11-24T16:58:37.331Z,101027.53
2022-11-24T17:01:07.598Z,101027.38
2022-11-24T17:03:37.854Z,101016.50
2022-11-24T17:06:07.549Z,101028.78
2022-11-24T17:08:36.398Z,101027.56
2022-11-24T17:11:13.986Z,101030.63
2022-11-24T17:13:41.230Z,101023.72
2022-11-24T17:16:11.869Z,101028.16
2022-11-24T17:18:39.163Z,101018.84
2022-11-24T17:21:10.869Z,101024.03
2022-11-24T17:23:38.081Z,101023.75
2022-11-24T17:26:12.425Z,101027.88
2022-11-24T17:28:39.632Z,101025.56
2022-11-24T17:31:17.906Z,101022.25
2022-11-24T17:33:44.722Z,101031.59
2022-11-24T17:36:11.429Z,101035.00
2022-11-24T17:38:38.152Z,101028.28
2022-11-24T17:41:05.192Z,101037.19
2022-11-24T17:43:32.700Z,101032.50
2022-11-24T17:46:03.001Z,101039.09
2022-11-24T17:48:31.538Z,101039.69
2022-11-24T17:51:10.264Z,101044.78
2022-11-24T17:53:37.531Z,101053.25
2022-11-24T17:56:04.764Z,101048.69
2022-11-24T17:58:37.176Z,101051.81
2022-11-24T18:01:07.743Z,101039.78
2022-11-24T18:03:34.514Z,101043.06
2022-11-24T18:06:19.833Z,101036.63
2022-11-24T18:08:47.274Z,101045.53
2022-11-24T18:11:24.643Z,101059.50
2022-11-24T18:14:00.205Z,101050.03
2022-11-24T18:16:29.652Z,101060.88
2022-11-24T18:19:08.272Z,101042.19
2022-11-24T18:21:37.921Z,101057.25
2022-11-24T18:24:04.863Z,101054.03
2022-11-24T18:26:31.585Z,101053.69
2022-11-24T18:28:58.273Z,101049.50
2022-11-24T18:31:26.147Z,101057.66
2022-11-24T18:33:52.940Z,101025.81
2022-11-24T18:36:23.579Z,101060.56
2022-11-24T18:38:53.885Z,101063.63
2022-11-24T18:41:21.514Z,101058.09
2022-11-24T18:43:49.026Z,101057.56
2022-11-24T18:46:19.342Z,101039.41
2022-11-24T18:48:46.149Z,101071.66
2022-11-24T18:51:14.590Z,101063.13
2022-11-24T18:53:43.378Z,101062.94
2022-11-24T18:56:16.642Z,101058.22
2022-11-24T18:58:44.546Z,101048.50
2022-11-24T19:01:20.348Z,101066.63
2022-11-24T19:03:50.805Z,101065.63
2022-11-24T19:06:28.939Z,101064.78
2022-11-24T19:08:56.059Z,101057.47
2022-11-24T19:11:29.625Z,101068.03
2022-11-24T19:13:56.600Z,101060.50
2022-11-24T19:16:24.390Z,101067.06
2022-11-24T19:18:54.363Z,101072.25
2022-11-24T19:21:22.903Z,101072.16
2022-11-24T19:23:50.024Z,101067.53
2022-11-24T19:26:17.374Z,101080.31
2022-11-24T19:28:44.655Z,101082.50
2022-11-24T19:31:14.503Z,101096.16
2022-11-24T19:33:42.607Z,101098.56
2022-11-24T19:36:16.355Z,101097.19
2022-11-24T19:38:49.870Z,101105.31
2022-11-24T19:41:19.389Z,101104.19
2022-11-24T19:43:47.177Z,101098.75
2022-11-24T19:46:17.726Z,101108.53
2022-11-24T19:48:47.147Z,101113.22
2022-11-24T19:51:17.354Z,101096.59
2022-11-24T19:53:45.159Z,101103.63
2022-11-24T19:56:22.386Z,101109.31
2022-11-24T19:58:51.072Z,101112.38
2022-11-24T20:01:30.153Z,101119.91
2022-11-24T20:04:02.832Z,101121.81
2022-11-24T20:06:41.952Z,101126.75
2022-11-24T20:09:12.913Z,101134.03
2022-11-24T20:11:39.949Z,101136.72
2022-11-24T20:14:09.880Z,101124.41
2022-11-24T20:16:36.872Z,101139.09
2022-11-24T20:19:11.661Z,101136.31
2022-11-24T20:21:41.412Z,101130.06
2022-11-24T20:24:13.826Z,101135.75
2022-11-24T20:26:51.250Z,101131.84
2022-11-24T20:29:18.846Z,101141.25
2022-11-24T20:31:49.538Z,101136.31
2022-11-24T20:34:17.435Z,101148.88
2022-11-24T20:36:46.026Z,101146.81
2022-11-24T20:39:21.663Z,101148.38
2022-11-24T20:41:48.629Z,101143.06
2022-11-24T20:44:18.294Z,101144.56
2022-11-24T20:46:46.548Z,101148.00
2022-11-24T20:49:17.320Z,101155.56
2022-11-24T20:51:46.869Z,101152.28
2022-11-24T20:54:16.835Z,101156.59
2022-11-24T20:56:44.622Z,101160.63
2022-11-24T20:59:15.756Z,101155.63
2022-11-24T21:01:45.387Z,101156.66
2022-11-24T21:04:20.438Z,101161.38
2022-11-24T21:06:47.784Z,101155.34
2022-11-24T21:09:14.536Z,101151.47
2022-11-24T21:11:41.371Z,101149.09
2022-11-24T21:14:08.736Z,101154.13
2022-11-24T21:16:38.998Z,101155.63
2022-11-24T21:19:14.064Z,101161.97
2022-11-24T21:21:42.467Z,101168.78
2022-11-24T21:24:18.049Z,101160.84
2022-11-24T21:26:50.327Z,101165.75
2022-11-24T21:29:19.163Z,101166.22
2022-11-24T21:31:46.223Z,101173.69
2022-11-24T21:34:18.545Z,101162.53
2022-11-24T21:36:45.394Z,101142.78
2022-11-24T21:39:14.287Z,101170.84
2022-11-24T21:41:41.867Z,101163.16
2022-11-24T21:44:10.372Z,101160.63
2022-11-24T21:46:43.929Z,101172.03
2022-11-24T21:49:13.193Z,101171.00
2022-11-24T21:51:39.993Z,101174.75
2022-11-24T21:54:06.949Z,101187.03
2022-11-24T21:56:33.632Z,101173.63
2022-11-24T21:59:00.310Z,101188.31
2022-11-24T22:01:28.725Z,101179.69
2022-11-24T22:03:55.912Z,101183.31
2022-11-24T22:06:23.268Z,101181.81
2022-11-24T22:08:50.150Z,101186.03
2022-11-24T22:11:23.675Z,101183.50
2022-11-24T22:13:51.441Z,101185.56
2022-11-24T22:16:21.306Z,101185.56
2022-11-24T22:18:49.013Z,101187.00
2022-11-24T22:21:19.697Z,101181.59
2022-11-24T22:23:50.024Z,101183.88
2022-11-24T22:26:20.770Z,101185.41
2022-11-24T22:28:48.198Z,101193.13
2022-11-24T22:31:22.235Z,101178.72
2022-11-24T22:33:50.232Z,101174.69
2022-11-24T22:36:20.740Z,101184.38
2022-11-24T22:38:52.433Z,101179.69
2022-11-24T22:41:19.094Z,101164.34
2022-11-24T22:43:46.306Z,101184.88
2022-11-24T22:46:18.985Z,101188.94
2022-11-24T22:48:47.772Z,101189.34
2022-11-24T22:51:24.868Z,101178.53
2022-11-24T22:53:54.958Z,101179.31
2022-11-24T22:56:22.307Z,101183.44
2022-11-24T22:58:49.724Z,101192.81
2022-11-24T23:01:24.342Z,101189.78
2022-11-24T23:03:54.308Z,101200.41
2022-11-24T23:06:27.068Z,101203.53
2022-11-24T23:08:55.413Z,101207.13
2022-11-24T23:11:31.595Z,101196.09
2022-11-24T23:14:02.927Z,101183.34
2022-11-24T23:16:30.116Z,101208.56
2022-11-24T23:18:57.439Z,101209.50
2022-11-24T23:21:28.282Z,101200.44
2022-11-24T23:23:55.853Z,101217.38
2022-11-24T23:26:32.616Z,101220.75
2022-11-24T23:28:59.897Z,101211.72
2022-11-24T23:31:28.782Z,101209.78
2022-11-24T23:34:01.988Z,101209.03
2022-11-24T23:36:30.435Z,101216.69
2022-11-24T23:39:03.272Z,101219.44
2022-11-24T23:41:31.427Z,101228.34
2022-11-24T23:43:58.888Z,101229.53
2022-11-24T23:46:27.207Z,101227.19
2022-11-24T23:48:55.546Z,101232.97
2022-11-24T23:51:32.216Z,101221.91
2022-11-24T23:54:00.201Z,101225.84
2022-11-24T23:56:33.094Z,101219.53
2022-11-24T23:59:02.322Z,101225.97
